Flight Track Log - Related Links

Times and Time Zones

All times are in EST time to prevent confusion due to time zone crossing. See the ANA1186 flight status page for this flight to view local times or setup timezone preferences in your user account.

Time Position Orientation Groundspeed Altitude Reporting Facility
EST Latitude Longitude Course Direction KTS MPH feet Rate Location/Type
Sat 12:37:00 AM 25.7704 122.5507 52° Northeast  Level Estimated
Sat 12:38:00 AM 25.8576 122.6764 52° Northeast  Level Estimated
Sat 12:39:00 AM 25.9446 122.8023 52° Northeast  Level Estimated
Sat 12:40:00 AM 26.0316 122.9283 52° Northeast  Level Estimated
Sat 12:41:00 AM 26.1184 123.0546 53° Northeast  Level Estimated
Sat 12:42:00 AM 26.2051 123.1811 53° Northeast  Level Estimated
Sat 12:43:00 AM 26.2917 123.3077 53° Northeast  Level Estimated
Sat 12:44:00 AM 26.3782 123.4345 53° Northeast  Level Estimated
Sat 12:45:00 AM 26.4646 123.5615 53° Northeast  Level Estimated
Sat 12:46:00 AM 26.5508 123.6887 53° Northeast  Level Estimated
Sat 12:47:00 AM 26.6370 123.8161 53° Northeast  Level Estimated
Sat 12:48:00 AM 26.7230 123.9437 53° Northeast  Level Estimated
Sat 12:49:00 AM 26.8089 124.0715 53° Northeast  Level Estimated
Sat 12:50:00 AM 26.8947 124.1994 53° Northeast  Level Estimated
Sat 12:51:00 AM 26.9804 124.3276 53° Northeast  Level Estimated
Sat 12:52:00 AM 27.0660 124.4560 53° Northeast  Level Estimated
Sat 12:53:00 AM 27.1514 124.5845 53° Northeast  Level Estimated
Sat 12:54:00 AM 27.2368 124.7133 53° Northeast  Level Estimated
Sat 12:55:00 AM 27.3220 124.8422 53° Northeast  Level Estimated
Sat 12:56:00 AM 27.4071 124.9714 53° Northeast  Level Estimated
Sat 12:57:00 AM 27.4921 125.1008 53° Northeast  Level Estimated
Sat 12:58:00 AM 27.5770 125.2303 54° Northeast  Level Estimated
Sat 12:59:00 AM 27.6617 125.3600 54° Northeast  Level Estimated
Sat 01:00:00 AM 27.7463 125.4900 54° Northeast  Level Estimated
Sat 01:01:00 AM 27.8308 125.6201 54° Northeast  Level Estimated
Sat 01:02:00 AM 27.9152 125.7505 54° Northeast  Level Estimated
Sat 01:03:00 AM 27.9995 125.8811 54° Northeast  Level Estimated
Sat 01:04:00 AM 28.0836 126.0118 54° Northeast  Level Estimated
Sat 01:05:00 AM 28.1676 126.1428 54° Northeast  Level Estimated
Sat 01:06:00 AM 28.2515 126.2740 54° Northeast  Level Estimated
Sat 01:07:00 AM 28.3353 126.4054 54° Northeast  Level Estimated
Sat 01:08:00 AM 28.4189 126.5369 54° Northeast  Level Estimated
Sat 01:09:00 AM 28.5024 126.6687 54° Northeast  Level Estimated
Sat 01:10:00 AM 28.5858 126.8008 54° Northeast  Level Estimated
Sat 01:11:00 AM 28.6690 126.9330 54° Northeast  Level Estimated
Sat 01:12:00 AM 28.7521 127.0654 54° Northeast  Level Estimated
Sat 01:13:00 AM 28.8351 127.1980 54° Northeast  Level Estimated
Sat 01:14:00 AM 28.9180 127.3309 55° Northeast  Level Estimated
Sat 01:15:00 AM 29.0007 127.4639 55° Northeast  Level Estimated
Sat 01:16:00 AM 29.0833 127.5972 55° Northeast  Level Estimated
Sat 01:17:00 AM 29.1658 127.7307 55° Northeast  Level Estimated
Sat 01:18:00 AM 29.2481 127.8644 55° Northeast  Level Estimated
Sat 01:19:00 AM 29.3303 127.9983 55° Northeast  Level Estimated
Sat 01:20:00 AM 29.4124 128.1324 55° Northeast  Level Estimated
Sat 01:21:00 AM 29.4944 128.2668 55° Northeast  Level Estimated
Sat 01:22:00 AM 29.5762 128.4014 55° Northeast  Level Estimated
Sat 01:23:00 AM 29.6578 128.5361 55° Northeast  Level Estimated
Sat 01:24:00 AM 29.7393 128.6711 55° Northeast  Level Estimated
Sat 01:25:00 AM 29.8207 128.8064 55° Northeast  Level Estimated
Sat 01:26:00 AM 29.9020 128.9418 55° Northeast  Level Estimated
Sat 01:27:00 AM 29.9831 129.0775 55° Northeast  Level Estimated
Sat 01:28:00 AM 30.0641 129.2133 55° Northeast  Level Estimated
Sat 01:29:00 AM 30.1449 129.3495 55° Northeast  Level Estimated
Sat 01:30:00 AM 30.2256 129.4858 56° Northeast  Level Estimated
Sat 01:31:00 AM 30.3062 129.6223 56° Northeast  Level Estimated
Sat 01:32:00 AM 30.3866 129.7591 56° Northeast  Level Estimated
Sat 01:33:00 AM 30.4668 129.8961 56° Northeast  Level Estimated
Sat 01:34:00 AM 30.5470 130.0334 56° Northeast  Level Estimated
Sat 01:35:00 AM 30.6269 130.1708 56° Northeast  Level Estimated
Sat 01:36:00 AM 30.7068 130.3085 56° Northeast  Level Estimated
Sat 01:37:00 AM 30.7865 130.4464 56° Northeast  Level Estimated
Sat 01:38:00 AM 30.8660 130.5845 56° Northeast  Level Estimated
Sat 01:39:00 AM 30.9454 130.7229 56° Northeast  Level Estimated
Sat 01:40:00 AM 31.0247 130.8615 56° Northeast  Level Estimated
Sat 01:41:00 AM 31.1038 131.0003 56° Northeast  Level Estimated
Sat 01:42:00 AM 31.1827 131.1394 56° Northeast  Level Estimated
Sat 01:43:00 AM 31.2615 131.2787 56° Northeast  Level Estimated
Sat 01:44:00 AM 31.3402 131.4182 57° Northeast  Level Estimated
Sat 01:45:00 AM 31.4187 131.5580 57° Northeast  Level Estimated
Sat 01:46:00 AM 31.4970 131.6980 57° Northeast  Level Estimated
Sat 01:47:00 AM 31.5752 131.8382 57° Northeast  Level Estimated
Sat 01:48:00 AM 31.6532 131.9787 57° Northeast  Level Estimated
Sat 01:49:00 AM 31.7311 132.1194 57° Northeast  Level Estimated
Sat 01:50:00 AM 31.8089 132.2603 57° Northeast  Level Estimated
Sat 01:51:00 AM 31.8864 132.4014 57° Northeast  Level Estimated
Sat 01:52:00 AM 31.9639 132.5429 57° Northeast  Level Estimated
Sat 01:53:00 AM 32.0411 132.6845 57° Northeast  Level Estimated
Sat 01:54:00 AM 32.1183 132.8264 57° Northeast  Level Estimated
Sat 01:55:00 AM 32.1952 132.9685 57° Northeast  Level Estimated
Sat 01:56:00 AM 32.2720 133.1109 57° Northeast  Level Estimated
Sat 01:57:00 AM 32.3486 133.2535 58° Northeast  Level Estimated
Sat 01:58:00 AM 32.4251 133.3964 58° Northeast  Level Estimated
Sat 01:59:00 AM 32.5014 133.5394 58° Northeast  Level Estimated
Sat 02:00:00 AM 32.5775 133.6828 58° Northeast  Level Estimated
Sat 02:01:00 AM 32.6535 133.8264 58° Northeast  Level Estimated
Sat 02:02:00 AM 32.7294 133.9702 58° Northeast  Level Estimated
Sat 02:03:00 AM 32.8050 134.1142 58° Northeast  Level Estimated
Sat 02:04:00 AM 32.8805 134.2586 58° Northeast  Level Estimated
Sat 02:05:00 AM 32.9558 134.4031 58° Northeast  Level Estimated
Sat 02:06:00 AM 33.0310 134.5479 58° Northeast  Level Estimated
Sat 02:07:00 AM 33.1060 134.6930 58° Northeast  Level Estimated
Sat 02:08:00 AM 33.1808 134.8383 58° Northeast  Level Estimated
Sat 02:09:00 AM 33.2554 134.9838 58° Northeast  Level Estimated
Sat 02:10:00 AM 33.3299 135.1296 59° Northeast  Level Estimated
Sat 02:11:00 AM 33.4042 135.2756 59° Northeast  Level Estimated
Sat 02:12:00 AM 33.4784 135.4219 59° Northeast  Level Estimated
Sat 02:13:00 AM 33.5523 135.5685 59° Northeast  Level Estimated
Sat 02:14:00 AM 33.6261 135.7153 59° Northeast  Level Estimated
Sat 02:15:00 AM 33.6997 135.8623 59° Northeast  Level Estimated
Sat 02:16:00 AM 33.7732 136.0096 59° Northeast  Level Estimated
Sat 02:17:00 AM 33.8465 136.1572 59° Northeast  Level Estimated
Sat 02:18:00 AM 33.9196 136.3050 59° Northeast  Level Estimated
Sat 02:19:00 AM 33.9925 136.4530 59° Northeast  Level Estimated
Sat 02:20:00 AM 34.0652 136.6013 59° Northeast  Level Estimated
Sat 02:21:00 AM 34.1378 136.7499 59° Northeast  Level Estimated
Sat 02:22:00 AM 34.2102 136.8987 60° Northeast  Level Estimated
Sat 02:23:00 AM 34.2824 137.0478 60° Northeast  Level Estimated
Sat 02:24:00 AM 34.3544 137.1971 60° Northeast  Level Estimated
Sat 02:25:00 AM 34.4262 137.3467 60° Northeast  Level Estimated
Sat 02:26:00 AM 34.4979 137.4966 60° Northeast  Level Estimated
Sat 02:27:00 AM 34.5694 137.6467 60° Northeast  Level Estimated
Sat 02:28:00 AM 34.6407 137.7970 60° Northeast  Level Estimated
Sat 02:29:00 AM 34.7118 137.9476 60° Northeast  Level Estimated
Sat 02:30:00 AM 34.7827 138.0985 60° Northeast  Level Estimated
Sat 02:31:00 AM 34.8534 138.2496 60° Northeast  Level Estimated
Sat 02:32:00 AM 34.9240 138.4010 60° Northeast  Level Estimated
Sat 02:33:00 AM 34.9943 138.5527 60° Northeast  Level Estimated
Sat 02:34:00 AM 35.0645 138.7046 61° Northeast  Level Estimated
Sat 02:35:00 AM 35.1345 138.8568 61° Northeast  Level Estimated
Sat 02:36:00 AM 35.2043 139.0092 61° Northeast  Level Estimated
Sat 02:37:00 AM 35.2739 139.1620 61° Northeast  Level Estimated
Sat 02:38:00 AM 35.3433 139.3149 61° Northeast  Level Estimated
Sat 02:39:00 AM 35.4125 139.4681 61° Northeast  Level Estimated
Sat 02:40:00 AM 35.4815 139.6216 61° Northeast  Level Estimated
Sat 02:41:00 AM 35.5503 139.7754 61° Northeast  Level Estimated
Sat 02:42:00 AM 35.5523 139.7797 61° Northeast  Level Estimated
Sat 02:43:00 AM 35.5523 139.7797 122° Southeast  Level Estimated
Sat 02:44:00 AM 35.5523 139.7797 122° Southeast  Level Estimated
Sat 02:45:00 AM 35.5523 139.7797 122° Southeast  Level Estimated
Sat 02:46:00 AM 35.5523 139.7797 122° Southeast  Level Estimated
Sat 02:47:00 AM 35.5523 139.7797 122° Southeast  Level Estimated
Sat 02:48:00 AM 35.5523 139.7797 122° Southeast  Level Estimated
Sat 02:48:16 AM 35.0489 139.9930 122° Southeast 215 247 1,200  Level FlightAware ADS-B
Sat 02:49:00 AM 35.5523 139.7797 122° Southeast  Level Estimated
Sat 02:49:04 AM 35.4651 139.8372 343° North 151 174 1,200  Level FlightAware ADS-B (ZPPP / KMG)
Sat 02:51:00 AM 35.5523 139.7797 332° Northwest  Level Estimated
Sat 02:52:00 AM 35.5523 139.7797 122° Southeast  Level Estimated
Sat 02:53:00 AM 35.5523 139.7797 122° Southeast  Level Estimated

Login

Don't have an account? Register now (free) for customized features, flight alerts, and more!